Accueil
METAR-TAF:

METAR-TAF

Aéroports :

Bhopal, Inde

latitude: 23-17-15N, longitude: 77-20-15E, altitude: 524 m

Observation

Le bulletin a été fait il y a 1 heure et 18 minutes, à 12:00 UTC
Vent 4 kt de sud/sud-ouest
Température 30°C
Humidité 38%
Pression 1012 hPa
Visibilité: 6000 m
Quelques nuages à une hauteur de 3000 ft
Nuages épars à une hauteur de 10000 ft

METAR: VABP 291200Z 20004KT 6000 FEW030 SCT100 30/14 Q1012 NOSIG

Heure: 18:48 (13:18 UTC)

Prévision

Le bulletin a été fait il y a 2 heures et 18 minutes, à 11:00 UTC
Prévision valable du 29 à 12 UTC au 29 à 21 UTC
Vent 6 kt de sud
Visibilité: 5000 m
Nuages épars à une hauteur de 2500 ft
Nuages épars à une hauteur de 10000 ft
brume sèche
Evoluant progressivement
du 29 à 19 UTC au 29 à 21 UTC
Vent 6 kt de sud
Visibilité: 5000 m
Nuages épars à une hauteur de 2500 ft
Nuages fragmentés à une hauteur de 10000 ft
Quelques nuages à une hauteur de 2500 ft
Nuages épars à une hauteur de 10000 ft
pluie faible, brume sèche, brume sèche

TAF: VABP 291100Z 2912/2921 18006KT 5000 HZ SCT025 SCT100 BECMG 2919/2921 14006KT 3000 -RA HZ SCT025 BKN100 VAID 291100Z 2912/2921 18006KT 5000 HZ FEW025 SCT100

Observations et prévisions météorologiques de plus de 4000 aéroports (messages METAR et TAF).

Les stations disponibles sont représentées par des disques jaunes et rouges sur la carte.

Passer la souris dessus pour voir le nom de la station.

Cliquer dessus pour voir les observations et prévisions météorologiques.

Pour changer de carte: cliquez sur les boutons verts avec une croix noire pour zoomer, sur le bouton vert avec un tiret pour effectuer un zoom arrière, ou sur les flèches vertes pour les cartes adjacentes.


METAR-TAF: